createdAt,value
2024-04-16T00:00:30.258Z,31.79
2024-04-16T00:01:30.353Z,31.79
2024-04-16T00:02:30.487Z,31.78
2024-04-16T00:03:30.445Z,31.82
2024-04-16T00:04:30.464Z,31.80
2024-04-16T00:05:30.558Z,31.75
2024-04-16T00:06:30.646Z,31.78
2024-04-16T00:07:30.699Z,31.77
2024-04-16T00:08:30.555Z,31.76
2024-04-16T00:09:30.588Z,31.76
2024-04-16T00:10:30.685Z,31.74
2024-04-16T00:11:30.733Z,31.76
2024-04-16T00:12:30.704Z,31.77
2024-04-16T00:13:30.936Z,31.75
2024-04-16T00:14:31.065Z,31.77
2024-04-16T00:15:31.170Z,31.77
2024-04-16T00:16:30.922Z,31.78
2024-04-16T00:17:31.017Z,31.79
2024-04-16T00:18:30.935Z,31.79
2024-04-16T00:19:31.290Z,31.82
2024-04-16T00:20:31.007Z,31.83
2024-04-16T00:21:31.032Z,31.82
2024-04-16T00:22:31.164Z,31.79
2024-04-16T00:23:31.245Z,31.76
2024-04-16T00:24:31.164Z,31.77
2024-04-16T00:25:31.266Z,31.79
2024-04-16T00:26:31.394Z,31.75
2024-04-16T00:27:31.277Z,31.75
2024-04-16T00:28:31.413Z,31.76
2024-04-16T00:29:31.632Z,31.73
2024-04-16T00:30:31.547Z,31.78
2024-04-16T00:31:31.506Z,31.79
2024-04-16T00:32:31.827Z,31.79
2024-04-16T00:33:31.537Z,31.78
2024-04-16T00:34:31.960Z,31.75
2024-04-16T00:35:31.689Z,31.74
2024-04-16T00:36:31.677Z,31.75
2024-04-16T00:37:32.494Z,31.76
2024-04-16T00:38:31.749Z,31.77
2024-04-16T00:39:31.814Z,31.76
2024-04-16T00:40:31.869Z,31.78
2024-04-16T00:41:31.843Z,31.77
2024-04-16T00:42:31.906Z,31.79
2024-04-16T00:43:32.030Z,31.78
2024-04-16T00:44:32.016Z,31.77
2024-04-16T00:45:32.027Z,31.76
2024-04-16T00:46:32.189Z,31.75
2024-04-16T00:47:32.207Z,31.75
2024-04-16T00:48:32.179Z,31.72
2024-04-16T00:49:32.283Z,31.77
2024-04-16T00:50:32.221Z,31.78
2024-04-16T00:51:32.302Z,31.78
2024-04-16T00:52:32.372Z,31.79
2024-04-16T00:53:32.346Z,31.78
2024-04-16T00:54:32.418Z,31.76
2024-04-16T00:55:32.516Z,31.75
2024-04-16T00:56:32.469Z,31.74
2024-04-16T00:57:32.519Z,31.74
2024-04-16T00:58:32.618Z,31.76
2024-04-16T00:59:32.631Z,31.77
2024-04-16T01:00:32.658Z,31.79
2024-04-16T01:01:32.707Z,31.79
2024-04-16T01:02:32.742Z,31.79
2024-04-16T01:03:32.844Z,31.79
2024-04-16T01:04:32.913Z,31.75
2024-04-16T01:05:32.871Z,31.76
2024-04-16T01:06:32.921Z,31.75
2024-04-16T01:07:33.122Z,31.73
2024-04-16T01:08:33.007Z,31.74
2024-04-16T01:09:33.056Z,31.76
2024-04-16T01:10:33.122Z,31.75
2024-04-16T01:11:33.191Z,31.76
2024-04-16T01:12:33.165Z,31.77
2024-04-16T01:13:33.302Z,31.77
2024-04-16T01:14:33.270Z,31.77
2024-04-16T01:15:33.369Z,31.75
2024-04-16T01:16:33.412Z,31.75
2024-04-16T01:17:33.498Z,31.78
2024-04-16T01:18:33.567Z,31.75
2024-04-16T01:19:33.516Z,31.76
2024-04-16T01:20:33.548Z,31.78
2024-04-16T01:21:33.575Z,31.76
2024-04-16T01:22:33.722Z,31.77
2024-04-16T01:23:33.640Z,31.77
2024-04-16T01:24:33.727Z,31.78
2024-04-16T01:25:33.740Z,31.79
2024-04-16T01:26:33.844Z,31.76
2024-04-16T01:27:33.834Z,31.77
2024-04-16T01:28:33.991Z,31.77
2024-04-16T01:29:33.939Z,31.75
2024-04-16T01:30:33.966Z,31.76
2024-04-16T01:31:34.110Z,31.73
2024-04-16T01:32:34.109Z,31.74
2024-04-16T01:33:34.054Z,31.76
2024-04-16T01:34:34.242Z,31.75
2024-04-16T01:35:34.145Z,31.74
2024-04-16T01:36:34.225Z,31.72
2024-04-16T01:37:34.382Z,31.73
2024-04-16T01:38:34.289Z,31.74
2024-04-16T01:39:36.417Z,31.71
2024-04-16T01:40:34.414Z,31.71
2024-04-16T01:41:34.318Z,31.70
2024-04-16T01:42:34.348Z,31.71
2024-04-16T01:43:34.412Z,31.71
2024-04-16T01:44:34.371Z,31.71
2024-04-16T01:45:34.343Z,31.72
2024-04-16T01:46:34.422Z,31.71
2024-04-16T01:47:34.391Z,31.73
2024-04-16T01:48:34.449Z,31.73
2024-04-16T01:49:34.386Z,31.69
2024-04-16T01:50:34.296Z,31.66
2024-04-16T01:51:34.348Z,31.67
2024-04-16T01:52:34.562Z,31.67
2024-04-16T01:53:34.400Z,31.68
2024-04-16T01:54:34.346Z,31.68
2024-04-16T01:55:34.470Z,31.68
2024-04-16T01:56:34.354Z,31.67
2024-04-16T01:57:34.363Z,31.66
2024-04-16T01:58:34.398Z,31.66
2024-04-16T01:59:34.359Z,31.66
2024-04-16T02:00:34.349Z,31.67
2024-04-16T02:01:34.432Z,31.63
2024-04-16T02:02:34.368Z,31.62
2024-04-16T02:03:34.375Z,31.63
2024-04-16T02:04:34.400Z,31.61
2024-04-16T02:05:34.348Z,31.62
2024-04-16T02:06:34.311Z,31.59
2024-04-16T02:07:34.427Z,31.61
2024-04-16T02:08:34.328Z,31.60
2024-04-16T02:09:34.343Z,31.62
2024-04-16T02:10:34.400Z,31.63
2024-04-16T02:11:34.372Z,31.64
2024-04-16T02:12:34.354Z,31.63
2024-04-16T02:13:34.423Z,31.62
2024-04-16T02:14:34.377Z,31.60
2024-04-16T02:15:34.355Z,31.62
2024-04-16T02:16:34.480Z,31.62
2024-04-16T02:17:34.423Z,31.62
2024-04-16T02:18:34.585Z,31.63
2024-04-16T02:19:34.440Z,31.61
2024-04-16T02:20:34.374Z,31.62
2024-04-16T02:21:34.348Z,31.61
2024-04-16T02:22:34.433Z,31.61
2024-04-16T02:23:34.435Z,31.63
2024-04-16T02:24:34.455Z,31.63
2024-04-16T02:25:34.527Z,31.62
2024-04-16T02:26:34.563Z,31.63
2024-04-16T02:27:34.593Z,31.63
2024-04-16T02:28:34.665Z,31.63
2024-04-16T02:29:34.721Z,31.62
2024-04-16T02:30:34.753Z,31.61
2024-04-16T02:31:34.905Z,31.61
2024-04-16T02:32:34.911Z,31.60
2024-04-16T02:33:34.900Z,31.60
2024-04-16T02:34:34.944Z,31.60
2024-04-16T02:35:34.994Z,31.64
2024-04-16T02:36:35.029Z,31.63
2024-04-16T02:37:35.152Z,31.61
2024-04-16T02:38:35.112Z,31.60
2024-04-16T02:39:35.222Z,31.62
2024-04-16T02:40:35.262Z,31.62
2024-04-16T02:41:35.452Z,31.60
2024-04-16T02:42:35.311Z,31.62
2024-04-16T02:43:35.395Z,31.62
2024-04-16T02:44:35.393Z,31.61
2024-04-16T02:45:35.454Z,31.64
2024-04-16T02:46:35.649Z,31.61
2024-04-16T02:47:35.636Z,31.62
2024-04-16T02:48:35.587Z,31.63
2024-04-16T02:49:35.669Z,31.63
2024-04-16T02:50:35.769Z,31.62
2024-04-16T02:51:35.822Z,31.62
2024-04-16T02:52:35.876Z,31.62
2024-04-16T02:53:35.861Z,31.63
2024-04-16T02:54:35.999Z,31.62
2024-04-16T02:55:36.045Z,31.61
2024-04-16T02:56:36.026Z,31.62
2024-04-16T02:57:36.491Z,31.64
2024-04-16T02:58:36.157Z,31.60
2024-04-16T02:59:36.201Z,31.62
2024-04-16T03:00:36.346Z,31.61
2024-04-16T03:01:36.343Z,31.60
2024-04-16T03:02:36.390Z,31.61
2024-04-16T03:03:36.403Z,31.61
2024-04-16T03:04:36.485Z,31.62
2024-04-16T03:05:36.470Z,31.61
2024-04-16T03:06:36.597Z,31.59
2024-04-16T03:07:36.603Z,31.61
2024-04-16T03:08:36.678Z,31.60
2024-04-16T03:09:36.706Z,31.62
2024-04-16T03:10:36.818Z,31.59
2024-04-16T03:11:36.823Z,31.61
2024-04-16T03:12:36.822Z,31.61
2024-04-16T03:13:36.899Z,31.60
2024-04-16T03:14:36.949Z,31.62
2024-04-16T03:15:36.991Z,31.60
2024-04-16T03:16:37.203Z,31.61
2024-04-16T03:17:37.141Z,31.61
2024-04-16T03:18:37.178Z,31.60
2024-04-16T03:19:37.288Z,31.61
2024-04-16T03:20:37.242Z,31.61
2024-04-16T03:21:37.351Z,31.62
2024-04-16T03:22:37.393Z,31.61
2024-04-16T03:23:37.385Z,31.61
2024-04-16T03:24:37.429Z,31.60
2024-04-16T03:25:37.530Z,31.62
2024-04-16T03:26:37.535Z,31.62
2024-04-16T03:27:37.571Z,31.61
2024-04-16T03:28:37.640Z,31.61
2024-04-16T03:29:37.669Z,31.60
2024-04-16T03:30:37.734Z,31.61
2024-04-16T03:31:37.863Z,31.60
2024-04-16T03:32:37.885Z,31.63
2024-04-16T03:33:37.880Z,31.61
2024-04-16T03:34:37.983Z,31.60
2024-04-16T03:35:38.008Z,31.62
2024-04-16T03:36:38.055Z,31.61
2024-04-16T03:37:38.207Z,31.62
2024-04-16T03:38:38.164Z,31.60
2024-04-16T03:39:38.182Z,31.60
2024-04-16T03:40:38.341Z,31.61
2024-04-16T03:41:38.300Z,31.60
2024-04-16T03:42:38.425Z,31.60
2024-04-16T03:43:38.526Z,31.61
2024-04-16T03:44:38.468Z,31.61
2024-04-16T03:45:38.553Z,31.61
2024-04-16T03:46:38.776Z,31.61
2024-04-16T03:47:38.732Z,31.60
2024-04-16T03:48:38.736Z,31.60
2024-04-16T03:49:38.802Z,31.61
2024-04-16T03:50:38.776Z,31.62
2024-04-16T03:51:38.827Z,31.59
2024-04-16T03:52:39.196Z,31.60
2024-04-16T03:53:38.943Z,31.59
2024-04-16T03:54:38.999Z,31.60
2024-04-16T03:55:39.096Z,31.60
2024-04-16T03:56:39.134Z,31.61
2024-04-16T03:57:39.287Z,31.60
2024-04-16T03:58:39.265Z,31.62
2024-04-16T03:59:39.481Z,31.60
2024-04-16T04:00:39.377Z,31.60
2024-04-16T04:01:39.660Z,31.60
2024-04-16T04:02:39.602Z,31.59
2024-04-16T04:03:39.623Z,31.44
2024-04-16T04:04:39.696Z,31.30
2024-04-16T04:05:39.652Z,31.18
2024-04-16T04:06:39.697Z,31.11
2024-04-16T04:07:39.814Z,31.05
2024-04-16T04:08:39.818Z,30.94
2024-04-16T04:09:39.870Z,30.89
2024-04-16T04:10:40.065Z,30.79
2024-04-16T04:11:40.004Z,30.75
2024-04-16T04:12:40.120Z,30.65
2024-04-16T04:13:40.136Z,30.53
2024-04-16T04:14:42.523Z,30.46
2024-04-16T04:15:40.232Z,30.44
2024-04-16T04:16:40.221Z,30.35
2024-04-16T04:17:40.242Z,30.28
2024-04-16T04:18:40.221Z,30.21
2024-04-16T04:19:40.273Z,30.08
2024-04-16T04:20:40.209Z,30.04
2024-04-16T04:21:40.282Z,30.00
2024-04-16T04:22:42.765Z,29.92
2024-04-16T04:23:40.201Z,29.87
2024-04-16T04:24:40.182Z,29.82
2024-04-16T04:25:40.225Z,29.78
2024-04-16T04:26:48.081Z,29.76
2024-04-16T04:27:48.232Z,29.69
2024-04-16T04:28:48.486Z,29.61
2024-04-16T04:29:48.518Z,29.59
2024-04-16T04:30:48.733Z,29.55
2024-04-16T04:31:56.602Z,29.61
2024-04-16T04:32:56.800Z,29.63
2024-04-16T04:33:56.777Z,29.62
2024-04-16T04:34:57.061Z,29.61
2024-04-16T04:35:57.201Z,29.63
2024-04-16T04:36:57.378Z,29.66
2024-04-16T04:37:57.550Z,29.70
2024-04-16T04:38:57.734Z,29.72
2024-04-16T04:39:57.901Z,29.76
2024-04-16T04:40:57.952Z,29.81
2024-04-16T04:41:58.187Z,29.79
2024-04-16T04:42:58.285Z,29.78
2024-04-16T04:43:58.309Z,29.79
2024-04-16T04:44:58.589Z,29.78
2024-04-16T04:45:58.632Z,29.77
2024-04-16T04:46:58.764Z,29.77
2024-04-16T04:47:59.030Z,29.78
2024-04-16T04:48:59.040Z,29.78
2024-04-16T04:49:59.168Z,29.80
2024-04-16T04:50:59.364Z,29.81
2024-04-16T04:51:59.414Z,29.81
2024-04-16T04:52:59.572Z,29.81
2024-04-16T04:53:59.701Z,29.83
2024-04-16T04:54:59.820Z,29.84
2024-04-16T04:55:59.962Z,29.85
2024-04-16T04:57:00.069Z,29.89
2024-04-16T04:58:00.179Z,29.88
2024-04-16T04:59:00.302Z,29.89
2024-04-16T05:00:00.469Z,29.88
2024-04-16T05:01:00.559Z,29.89
2024-04-16T05:02:00.846Z,29.90
2024-04-16T05:03:03.659Z,29.83
2024-04-16T05:04:01.044Z,29.88
2024-04-16T05:05:00.808Z,29.90
2024-04-16T05:06:00.849Z,29.93
2024-04-16T05:07:00.859Z,29.93
2024-04-16T05:08:00.849Z,29.95
2024-04-16T05:09:00.811Z,29.96
2024-04-16T05:10:00.836Z,29.95
2024-04-16T05:11:01.096Z,29.99
2024-04-16T05:12:00.835Z,29.97
2024-04-16T05:13:00.904Z,29.95
2024-04-16T05:14:00.817Z,29.93
2024-04-16T05:15:00.822Z,29.94
2024-04-16T05:16:00.829Z,29.95
2024-04-16T05:17:00.829Z,29.95
2024-04-16T05:18:00.868Z,29.95
2024-04-16T05:19:00.825Z,29.96
2024-04-16T05:20:00.819Z,29.99
2024-04-16T05:21:00.913Z,29.99
2024-04-16T05:22:00.863Z,29.96
2024-04-16T05:23:00.952Z,30.02
2024-04-16T05:24:01.022Z,29.98
2024-04-16T05:25:01.126Z,29.80
2024-04-16T05:26:02.832Z,29.68
2024-04-16T05:27:01.138Z,29.70
2024-04-16T05:28:01.151Z,29.19
2024-04-16T05:29:01.128Z,29.04
2024-04-16T05:30:01.144Z,28.07
2024-04-16T05:31:01.163Z,27.58
2024-04-16T05:32:01.179Z,27.07
2024-04-16T05:33:01.203Z,26.95
2024-04-16T05:34:01.185Z,26.49
2024-04-16T05:35:01.570Z,25.95
2024-04-16T05:36:05.604Z,26.04
2024-04-16T05:37:02.147Z,26.48
2024-04-16T05:38:01.115Z,26.11
2024-04-16T05:39:01.143Z,26.16
2024-04-16T05:40:01.123Z,27.16
2024-04-16T05:41:01.147Z,27.19
2024-04-16T05:42:01.169Z,27.20
2024-04-16T05:43:01.140Z,26.30
2024-04-16T05:44:01.176Z,26.29
2024-04-16T05:45:01.156Z,26.59
2024-04-16T05:46:01.166Z,26.53
2024-04-16T05:47:01.596Z,27.10
2024-04-16T05:48:01.368Z,27.40
2024-04-16T05:49:01.671Z,27.65
2024-04-16T05:50:01.298Z,27.74
2024-04-16T05:51:01.173Z,27.94
2024-04-16T05:52:01.157Z,28.07
2024-04-16T05:53:01.229Z,28.21
2024-04-16T05:54:02.427Z,28.38
2024-04-16T05:55:01.230Z,28.56
2024-04-16T05:56:01.254Z,28.62
2024-04-16T05:57:01.425Z,28.67
2024-04-16T05:58:01.364Z,28.87
2024-04-16T05:59:01.419Z,28.71
2024-04-16T06:00:04.520Z,28.77
2024-04-16T06:01:01.529Z,28.92
2024-04-16T06:02:01.644Z,28.95
2024-04-16T06:03:01.455Z,28.89
2024-04-16T06:04:01.536Z,28.78
2024-04-16T06:05:03.093Z,28.68
2024-04-16T06:06:02.663Z,28.29
2024-04-16T06:07:02.171Z,28.22
2024-04-16T06:08:01.551Z,27.74
2024-04-16T06:09:01.518Z,28.31
2024-04-16T06:10:01.617Z,28.17
2024-04-16T06:11:01.576Z,27.58
2024-04-16T06:12:01.583Z,27.89
2024-04-16T06:13:02.080Z,27.72
2024-04-16T06:14:01.634Z,27.80
2024-04-16T06:15:01.590Z,27.72
2024-04-16T06:16:01.718Z,27.63
2024-04-16T06:17:02.650Z,27.38
2024-04-16T06:18:01.743Z,27.85
2024-04-16T06:19:01.566Z,27.82
2024-04-16T06:20:01.627Z,27.76
2024-04-16T06:21:01.745Z,27.47
2024-04-16T06:22:01.779Z,27.28
2024-04-16T06:23:02.131Z,27.80
2024-04-16T06:24:01.960Z,27.88
2024-04-16T06:25:02.115Z,28.00
2024-04-16T06:26:02.060Z,27.98
2024-04-16T06:27:02.126Z,27.85
2024-04-16T06:28:02.682Z,27.55
2024-04-16T06:29:02.280Z,27.47
2024-04-16T06:30:02.344Z,27.29
2024-04-16T06:31:02.405Z,27.23
2024-04-16T06:32:02.525Z,27.14
2024-04-16T06:33:02.674Z,27.10
2024-04-16T06:34:02.528Z,27.17
2024-04-16T06:35:02.599Z,27.03
2024-04-16T06:36:02.671Z,26.90
2024-04-16T06:37:02.820Z,26.68
2024-04-16T06:38:03.270Z,27.13
2024-04-16T06:39:03.143Z,27.33
2024-04-16T06:40:03.132Z,27.27
2024-04-16T06:41:03.133Z,26.80
2024-04-16T06:42:03.223Z,27.20
2024-04-16T06:43:03.709Z,27.26
2024-04-16T06:44:03.160Z,27.38
2024-04-16T06:45:03.243Z,27.45
2024-04-16T06:46:03.400Z,27.50
2024-04-16T06:47:03.392Z,27.58
2024-04-16T06:48:06.269Z,27.61
2024-04-16T06:49:09.414Z,27.68
2024-04-16T06:50:04.626Z,27.74
2024-04-16T06:51:04.503Z,27.77
2024-04-16T06:52:03.515Z,27.81
2024-04-16T06:53:03.589Z,27.84
2024-04-16T06:54:03.500Z,27.92
2024-04-16T06:55:04.136Z,27.96
2024-04-16T06:56:03.492Z,28.01
2024-04-16T06:57:03.446Z,28.04
2024-04-16T06:58:03.711Z,28.10
2024-04-16T06:59:03.538Z,28.08
2024-04-16T07:00:03.476Z,28.13
2024-04-16T07:01:03.773Z,28.19
2024-04-16T07:02:03.789Z,28.26
2024-04-16T07:03:11.715Z,28.24
2024-04-16T07:04:03.944Z,28.25
2024-04-16T07:05:04.514Z,28.23
2024-04-16T07:06:04.619Z,28.25
2024-04-16T07:07:05.964Z,28.28
2024-04-16T07:08:03.798Z,28.29
2024-04-16T07:09:06.255Z,28.32
2024-04-16T07:10:05.684Z,28.42
2024-04-16T07:11:04.171Z,28.40
2024-04-16T07:12:04.070Z,28.43
2024-04-16T07:13:03.933Z,28.49
2024-04-16T07:14:03.806Z,28.49
2024-04-16T07:15:03.812Z,28.49
2024-04-16T07:16:04.203Z,28.48
2024-04-16T07:17:03.900Z,28.46
2024-04-16T07:18:04.069Z,28.52
2024-04-16T07:19:11.612Z,28.48
2024-04-16T07:20:04.649Z,28.51
2024-04-16T07:21:03.836Z,28.61
2024-04-16T07:22:04.115Z,28.60
2024-04-16T07:23:04.054Z,28.62
2024-04-16T07:24:04.156Z,28.62
2024-04-16T07:25:04.901Z,28.64
2024-04-16T07:26:06.694Z,28.63
2024-04-16T07:27:03.915Z,28.68
2024-04-16T07:28:04.643Z,28.69
2024-04-16T07:29:04.271Z,28.69
2024-04-16T07:30:03.816Z,28.72
2024-04-16T07:31:09.771Z,28.63
2024-04-16T07:32:06.646Z,28.73
2024-04-16T07:33:03.929Z,27.55
2024-04-16T07:34:03.944Z,26.59
2024-04-16T07:35:03.880Z,27.02
2024-04-16T07:36:03.868Z,26.79
2024-04-16T07:37:05.709Z,26.16
2024-04-16T07:38:03.885Z,25.75
2024-04-16T07:39:04.710Z,25.07
2024-04-16T07:40:03.942Z,25.18
2024-04-16T07:41:03.912Z,25.67
2024-04-16T07:42:04.118Z,26.00
2024-04-16T07:43:04.017Z,26.20
2024-04-16T07:44:03.915Z,26.32
2024-04-16T07:45:04.683Z,26.40
2024-04-16T07:46:03.873Z,26.53
2024-04-16T07:47:04.286Z,26.59
2024-04-16T07:48:05.156Z,26.63
2024-04-16T07:49:04.139Z,26.66
2024-04-16T07:50:04.162Z,26.70
2024-04-16T07:51:04.240Z,26.73
2024-04-16T07:52:04.681Z,26.78
2024-04-16T07:53:04.506Z,26.83
2024-04-16T07:54:04.352Z,26.89
2024-04-16T07:55:04.436Z,26.95
2024-04-16T07:56:05.276Z,26.94
2024-04-16T07:57:04.693Z,26.98
2024-04-16T07:58:04.587Z,26.84
2024-04-16T07:59:04.630Z,26.52
2024-04-16T08:00:04.662Z,26.66
2024-04-16T08:01:04.832Z,26.49
2024-04-16T08:02:05.315Z,26.18
2024-04-16T08:03:05.730Z,26.34
2024-04-16T08:04:04.951Z,26.31
2024-04-16T08:05:04.961Z,26.16
2024-04-16T08:06:05.854Z,26.10
2024-04-16T08:07:05.066Z,26.16
2024-04-16T08:08:07.398Z,26.15
2024-04-16T08:09:05.091Z,25.99
2024-04-16T08:10:05.191Z,26.00
2024-04-16T08:11:05.132Z,25.91
2024-04-16T08:12:05.101Z,26.06
2024-04-16T08:13:05.217Z,25.92
2024-04-16T08:14:09.025Z,26.11
2024-04-16T08:15:05.657Z,26.20
2024-04-16T08:16:05.162Z,26.32
2024-04-16T08:17:07.195Z,26.42
2024-04-16T08:18:05.289Z,26.46
2024-04-16T08:19:06.242Z,26.46
2024-04-16T08:20:06.824Z,26.49
2024-04-16T08:21:05.111Z,26.51
2024-04-16T08:22:09.273Z,26.56
2024-04-16T08:23:06.235Z,26.60
2024-04-16T08:24:05.179Z,26.60
2024-04-16T08:25:05.958Z,26.55
2024-04-16T08:26:08.072Z,26.01
2024-04-16T08:27:05.155Z,24.93
2024-04-16T08:28:05.234Z,24.35
2024-04-16T08:29:05.194Z,23.88
2024-04-16T08:30:05.127Z,23.60
2024-04-16T08:31:05.099Z,23.51
2024-04-16T08:32:08.114Z,23.36
2024-04-16T08:33:05.240Z,23.31
2024-04-16T08:34:05.398Z,23.15
2024-04-16T08:35:05.218Z,23.14
2024-04-16T08:36:05.142Z,23.04
2024-04-16T08:37:05.270Z,23.07
2024-04-16T08:38:06.231Z,23.18
2024-04-16T08:39:05.235Z,23.19
2024-04-16T08:40:05.546Z,23.14
2024-04-16T08:41:05.150Z,23.19
2024-04-16T08:42:05.161Z,23.64
2024-04-16T08:43:05.311Z,24.01
2024-04-16T08:44:09.147Z,24.36
2024-04-16T08:45:06.194Z,24.66
2024-04-16T08:46:05.428Z,25.01
2024-04-16T08:47:05.180Z,25.21
2024-04-16T08:48:05.697Z,25.28
2024-04-16T08:49:05.766Z,25.91
2024-04-16T08:50:05.119Z,26.27
2024-04-16T08:51:05.148Z,26.06
2024-04-16T08:52:05.178Z,25.79
2024-04-16T08:53:05.241Z,26.07
2024-04-16T08:54:05.185Z,25.86
2024-04-16T08:55:05.681Z,25.79
2024-04-16T08:56:05.191Z,25.81
2024-04-16T08:57:05.203Z,25.87
2024-04-16T08:58:07.739Z,25.70
2024-04-16T08:59:05.459Z,25.51
2024-04-16T09:00:05.583Z,25.76
2024-04-16T09:01:06.239Z,25.94
2024-04-16T09:02:05.649Z,25.61
2024-04-16T09:03:05.678Z,25.98
2024-04-16T09:04:05.702Z,25.61
2024-04-16T09:05:07.745Z,25.59
2024-04-16T09:06:05.930Z,25.58
2024-04-16T09:07:06.716Z,25.60
2024-04-16T09:08:06.002Z,25.93
2024-04-16T09:09:09.830Z,25.53
2024-04-16T09:10:07.157Z,25.39
2024-04-16T09:11:06.114Z,25.43
2024-04-16T09:12:07.669Z,25.54
2024-04-16T09:13:06.046Z,25.59
2024-04-16T09:14:06.071Z,25.54
2024-04-16T09:15:07.834Z,25.22
2024-04-16T09:16:08.312Z,25.56
2024-04-16T09:17:07.363Z,25.10
2024-04-16T09:18:06.289Z,25.43
2024-04-16T09:19:06.418Z,25.17
2024-04-16T09:20:06.406Z,25.20
2024-04-16T09:21:06.542Z,25.12
2024-04-16T09:22:06.745Z,25.28
2024-04-16T09:23:08.211Z,25.35
2024-04-16T09:24:06.838Z,25.18
2024-04-16T09:25:06.731Z,25.07
2024-04-16T09:26:06.797Z,24.99
2024-04-16T09:27:07.229Z,25.04
2024-04-16T09:28:06.986Z,25.28
2024-04-16T09:29:07.070Z,25.14
2024-04-16T09:30:07.110Z,25.02
2024-04-16T09:31:07.424Z,25.02
2024-04-16T09:32:07.954Z,24.91
2024-04-16T09:33:11.518Z,25.14
2024-04-16T09:34:07.471Z,25.12
2024-04-16T09:35:07.288Z,25.39
2024-04-16T09:36:07.340Z,25.34
2024-04-16T09:37:07.320Z,25.21
2024-04-16T09:38:07.763Z,25.29
2024-04-16T09:39:07.319Z,25.28
2024-04-16T09:40:07.340Z,25.32
2024-04-16T09:41:07.319Z,25.32
2024-04-16T09:42:07.374Z,25.21
2024-04-16T09:43:08.228Z,25.19
2024-04-16T09:44:07.529Z,25.19
2024-04-16T09:45:07.607Z,25.20
2024-04-16T09:46:07.746Z,25.20
2024-04-16T09:47:07.817Z,25.13
2024-04-16T09:48:10.808Z,25.12
2024-04-16T09:49:07.868Z,25.13
2024-04-16T09:50:16.396Z,25.14
2024-04-16T09:51:09.561Z,25.16
2024-04-16T09:52:07.882Z,25.14
2024-04-16T09:53:10.415Z,25.13
2024-04-16T09:54:07.877Z,25.12
2024-04-16T09:55:08.221Z,25.12
2024-04-16T09:56:07.905Z,25.10
2024-04-16T09:57:07.907Z,25.01
2024-04-16T09:58:07.868Z,24.99
2024-04-16T09:59:07.868Z,24.96
2024-04-16T10:00:08.241Z,24.96
2024-04-16T10:01:08.006Z,24.94
2024-04-16T10:02:07.888Z,24.91
2024-04-16T10:03:07.931Z,24.87
2024-04-16T10:04:08.401Z,24.79
2024-04-16T10:05:07.887Z,24.85
2024-04-16T10:06:07.883Z,24.84
2024-04-16T10:07:07.939Z,24.79
2024-04-16T10:08:08.004Z,24.74
2024-04-16T10:09:07.871Z,24.73
2024-04-16T10:10:07.914Z,24.75
2024-04-16T10:11:14.213Z,24.62
2024-04-16T10:12:09.231Z,24.51
2024-04-16T10:13:08.033Z,24.45
2024-04-16T10:14:07.896Z,24.51
2024-04-16T10:15:07.908Z,24.56
2024-04-16T10:16:07.954Z,24.62
2024-04-16T10:17:08.092Z,24.67
2024-04-16T10:18:08.011Z,24.76
2024-04-16T10:19:08.006Z,24.80
2024-04-16T10:20:07.952Z,24.80
2024-04-16T10:21:07.948Z,24.79
2024-04-16T10:22:08.208Z,24.78
2024-04-16T10:23:08.036Z,24.68
2024-04-16T10:24:07.981Z,24.73
2024-04-16T10:25:08.480Z,24.70
2024-04-16T10:26:08.019Z,24.56
2024-04-16T10:27:07.997Z,24.30
2024-04-16T10:28:08.085Z,24.31
2024-04-16T10:29:07.953Z,24.20
2024-04-16T10:30:08.088Z,24.18
2024-04-16T10:31:08.100Z,23.81
2024-04-16T10:32:10.139Z,23.72
2024-04-16T10:33:08.298Z,23.67
2024-04-16T10:34:08.368Z,23.72
2024-04-16T10:35:08.356Z,23.73
2024-04-16T10:36:08.561Z,23.67
2024-04-16T10:37:08.495Z,23.72
2024-04-16T10:38:10.586Z,23.67
2024-04-16T10:39:08.524Z,23.72
2024-04-16T10:40:08.618Z,23.73
2024-04-16T10:41:08.635Z,23.71
2024-04-16T10:42:08.617Z,23.70
2024-04-16T10:43:08.712Z,23.64
2024-04-16T10:44:08.660Z,23.63
2024-04-16T10:45:09.204Z,23.54
2024-04-16T10:46:08.824Z,23.62
2024-04-16T10:47:08.845Z,23.56
2024-04-16T10:48:09.011Z,23.56
2024-04-16T10:49:08.873Z,23.62
2024-04-16T10:50:09.211Z,23.65
2024-04-16T10:51:08.935Z,23.73
2024-04-16T10:52:09.046Z,23.84
2024-04-16T10:53:09.052Z,23.86
2024-04-16T10:54:08.995Z,23.94
2024-04-16T10:55:09.288Z,23.96
2024-04-16T10:56:09.109Z,23.82
2024-04-16T10:57:09.120Z,23.68
2024-04-16T10:58:09.165Z,23.80
2024-04-16T10:59:09.131Z,23.61
2024-04-16T11:00:10.977Z,23.67
2024-04-16T11:01:09.266Z,23.70
2024-04-16T11:02:09.782Z,23.66
2024-04-16T11:03:09.446Z,23.48
2024-04-16T11:04:09.393Z,23.27
2024-04-16T11:05:09.346Z,23.25
2024-04-16T11:06:09.694Z,22.77
2024-04-16T11:07:09.416Z,22.76
2024-04-16T11:08:09.590Z,22.78
2024-04-16T11:09:09.466Z,22.65
2024-04-16T11:10:09.578Z,22.51
2024-04-16T11:11:09.818Z,22.53
2024-04-16T11:12:09.592Z,22.57
2024-04-16T11:13:09.668Z,22.51
2024-04-16T11:14:09.651Z,22.44
2024-04-16T11:15:09.700Z,22.64
2024-04-16T11:16:09.778Z,22.46
2024-04-16T11:17:09.778Z,22.46
2024-04-16T11:18:09.938Z,22.39
2024-04-16T11:19:09.870Z,22.27
2024-04-16T11:20:09.847Z,22.32
2024-04-16T11:21:09.908Z,22.40
2024-04-16T11:22:09.920Z,22.41
2024-04-16T11:23:09.927Z,22.30
2024-04-16T11:24:09.918Z,22.29
2024-04-16T11:25:10.060Z,22.17
2024-04-16T11:26:10.067Z,22.13
2024-04-16T11:27:10.093Z,22.19
2024-04-16T11:28:10.184Z,22.07
2024-04-16T11:29:10.170Z,22.04
2024-04-16T11:30:10.165Z,22.13
2024-04-16T11:31:10.230Z,22.24
2024-04-16T11:32:10.241Z,22.39
2024-04-16T11:33:16.660Z,22.33
2024-04-16T11:34:11.417Z,21.87
2024-04-16T11:35:10.299Z,21.61
2024-04-16T11:36:13.142Z,21.64
2024-04-16T11:37:10.292Z,21.48
2024-04-16T11:38:10.260Z,21.59
2024-04-16T11:39:10.338Z,21.65
2024-04-16T11:40:10.320Z,21.25
2024-04-16T11:41:12.845Z,21.31
2024-04-16T11:42:10.246Z,21.14
2024-04-16T11:43:10.305Z,21.07
2024-04-16T11:44:11.437Z,20.73
2024-04-16T11:45:10.269Z,20.69
2024-04-16T11:46:10.304Z,20.66
2024-04-16T11:47:10.311Z,21.00
2024-04-16T11:48:10.328Z,21.10
2024-04-16T11:49:10.343Z,20.66
2024-04-16T11:50:12.064Z,20.79
2024-04-16T11:51:10.325Z,20.81
2024-04-16T11:52:10.322Z,20.62
2024-04-16T11:53:10.329Z,20.27
2024-04-16T11:54:10.335Z,20.51
2024-04-16T11:55:10.299Z,19.99
2024-04-16T11:56:12.561Z,20.29
2024-04-16T11:57:10.288Z,20.42
2024-04-16T11:58:10.342Z,19.88
2024-04-16T11:59:10.316Z,20.36
2024-04-16T12:00:10.301Z,20.39
2024-04-16T12:01:10.478Z,20.22
2024-04-16T12:02:13.180Z,20.04
2024-04-16T12:03:10.338Z,20.29
2024-04-16T12:04:10.454Z,19.30
2024-04-16T12:05:10.366Z,19.65
2024-04-16T12:06:10.318Z,18.50
2024-04-16T12:07:10.358Z,19.29
2024-04-16T12:08:11.807Z,18.76
2024-04-16T12:09:10.348Z,18.81
2024-04-16T12:10:10.345Z,19.19
2024-04-16T12:11:10.476Z,19.73
2024-04-16T12:12:10.302Z,20.48
2024-04-16T12:13:10.333Z,20.84
2024-04-16T12:14:11.791Z,21.06
2024-04-16T12:15:10.327Z,21.38
2024-04-16T12:16:10.332Z,21.63
2024-04-16T12:17:10.437Z,21.99
2024-04-16T12:18:10.357Z,22.19
2024-04-16T12:19:10.330Z,22.37
2024-04-16T12:20:11.783Z,22.63
2024-04-16T12:21:10.318Z,22.86
2024-04-16T12:22:10.335Z,22.98
2024-04-16T12:23:10.404Z,23.26
2024-04-16T12:24:10.339Z,23.26
2024-04-16T12:25:10.402Z,23.26
2024-04-16T12:26:10.399Z,23.23
2024-04-16T12:27:10.351Z,23.20
2024-04-16T12:28:10.432Z,23.20
2024-04-16T12:29:10.471Z,23.11
2024-04-16T12:30:10.639Z,23.08
2024-04-16T12:31:10.862Z,23.06
2024-04-16T12:32:10.755Z,22.99
2024-04-16T12:33:15.768Z,22.90
2024-04-16T12:34:11.842Z,22.84
2024-04-16T12:35:13.671Z,22.85
2024-04-16T12:36:10.768Z,22.78
2024-04-16T12:37:10.752Z,22.72
2024-04-16T12:38:11.252Z,22.70
2024-04-16T12:39:10.727Z,22.68
2024-04-16T12:40:10.745Z,22.65
2024-04-16T12:41:10.899Z,22.61
2024-04-16T12:42:10.747Z,22.58
2024-04-16T12:43:10.736Z,22.51
2024-04-16T12:44:10.739Z,22.52
2024-04-16T12:45:10.783Z,22.50
2024-04-16T12:46:10.806Z,22.43
2024-04-16T12:47:10.740Z,22.40
2024-04-16T12:48:10.850Z,22.38
2024-04-16T12:49:10.935Z,22.39
2024-04-16T12:50:10.874Z,22.34
2024-04-16T12:51:10.788Z,22.32
2024-04-16T12:52:10.733Z,22.26
2024-04-16T12:53:10.737Z,22.28